Aérodrome :
LOGIN :

S'inscrire | Disclaimer

   EN    FR    IT 

 










Légende :    VFR   VFR Marginal   IFR   IFR Intensif   IFR Très Intensif
Visi : 
Plafond : 
>= 8 km
>= 3000ft
5 à 8 km
1000 à 3000 ft
1500m à 5 km
500 à 1000 ft
800 à 1500m
200 à 500 ft
< 800m
< 200 ft
Symboles :   Orages  Brouillard  Fortes neiges  Fortes précipitations  Vent > 20 kt
SIGMETs :   Divers  Orages  Givrage  Turbulence  Onde Orograph.  Cendres Volcan.







- Altitude de l'aérodrome : 162 ft
- Code IATA : BOD
- Voir les cartes d'approche


LFBD - Bordeaux / Merignac

DERNIER METAR :
  • 200030Z AUTO 32003KT 290V030 CAVOK 17/14 Q1023 NOSIG

METARs EXPIRÉS :
  • 200000Z AUTO VRB02KT CAVOK 17/14 Q1023 NOSIG
  • 192330Z AUTO VRB02KT CAVOK 17/14 Q1023 NOSIG
  • 192300Z AUTO VRB03KT CAVOK 18/13 Q1023 NOSIG
  • 192230Z AUTO VRB03KT CAVOK 18/13 Q1023 NOSIG
  • 192200Z AUTO VRB03KT CAVOK 19/13 Q1023 NOSIG

TAF TAF LFBD
Valide du 20 à 00h jusqu'au 21 à 06h UTC


192300Z 2000/2106 VRB02KT CAVOK TX31/2015Z TN16/2006Z
PROB30
TEMPO 2004/2007 0800 BCFG
BECMG 2014/2016 30010KT
BECMG 2100/2102 VRB02KT
ATIS : +33 5 57 92 81 04
Pas de NOTAMs connus pour ce terrain.



MET'MAP, la Météo Aéronautique d'un coup d'oeil ! - Copyright ORBIFLY Décembre 2007 - Disclaimer

ORBIFLY MET'MAP TEAM :

Programmation & Développement : Alexandra Zaïnal
Conception & Développement : Baudouin d'Aumeries
Co-Programmation & Développement : Marc-Olivier Méhu
Soutien technique & logistique : Manuel Goepfert

Contact : metmap@orbifly.com




SOURCES & CREDITS :

   NOAA